KICT/ICT METAR and TAF weather

Enter ICAO airport designator
Station Type Date Time Source
KICT METAR 2022/12/10 00:53 UTC NOAA

KICT 100053Z 15004KT 10SM SCT085 BKN220 06/M01 A3010 RMK AO2 SLP201 T00561006


Station Type Date Time Source
KICT Decoded METAR 2022/12/10 00:53 UTC NOAA

WICHITA MID-CONTINENT AIRPORT , KS, United States (KICT) 37-39N 97-26W 408M
Dec 09, 2022 - 07:53 PM EST / 2022.12.10 0053 UTC
Wind: from the SSE (150 degrees) at 5 MPH (4 KT):0
Visibility: 10 mile(s):0
Sky conditions: mostly cloudy
Temperature: 42.1 F (5.6 C)
Dew Point: 30.9 F (-0.6 C)
Relative Humidity: 64%
Pressure (altimeter): 30.1 in. Hg (1019 hPa)
ob: KICT 100053Z 15004KT 10SM SCT085 BKN220 06/M01 A3010 RMK AO2 SLP201 T00561006
cycle: 1

Station Type Date Time Source
KICT TAF 2022/12/09 18:48 UTC NOAA

TAF KICT 091746Z 0918/1018 35004KT P6SM SCT220
FM100400 15005KT P6SM VCSH OVC080
FM100700 14004KT P6SM VCSH OVC015
FM101600 36008KT P6SM BKN060
FM101700 35010KT P6SM SCT130

Example: see airport list